Time;durP1;ratioP1;P1;durP2;ratioP2;P2;SDS_P1;SDS_P2;PMS_P1;PMS_P2;Temp;Humidity;BMP_temperature;BMP_pressure;BME280_temperature;BME280_humidity;BME280_pressure;Samples;Min_cycle;Max_cycle;Signal;HPM_P1;HPM_P2
2022/06/02 00:03:26;;;;;;;7.07;4.28;;;;;;;;;;10235682;28;20407;-63
2022/06/02 00:08:31;;;;;;;6.63;4.23;;;;;;;;;;10235779;28;20081;-63
2022/06/02 00:13:33;;;;;;;4.50;4.10;;;;;;;;;;10235353;28;20084;-64
2022/06/02 00:18:35;;;;;;;4.60;3.83;;;;;;;;;;10235354;28;20041;-64
2022/06/02 00:23:46;;;;;;;6.05;3.55;;;;;;;;;;10235259;28;20073;-63
2022/06/02 00:28:47;;;;;;;5.15;3.90;;;;;;;;;;10235214;28;20092;-64
2022/06/02 00:33:50;;;;;;;5.70;4.00;;;;;;;;;;10234380;28;20045;-63
2022/06/02 00:38:49;;;;;;;5.53;4.70;;;;;;;;;;10235317;28;20057;-63
2022/06/02 00:44:08;;;;;;;5.03;4.20;;;;;;;;;;10234841;28;20042;-64
2022/06/02 00:49:10;;;;;;;5.43;4.75;;;;;;;;;;10231827;28;20089;-64
2022/06/02 00:59:36;;;;;;;7.47;4.45;;;;;;;;;;10243095;28;20056;-63
2022/06/02 01:04:39;;;;;;;7.50;4.97;;;;;;;;;;10242767;28;20048;-64
2022/06/02 01:10:04;;;;;;;8.02;4.82;;;;;;;;;;10242763;28;20077;-64
2022/06/02 01:15:07;;;;;;;5.00;4.60;;;;;;;;;;10229508;28;20077;-64
2022/06/02 01:20:14;;;;;;;5.47;4.85;;;;;;;;;;10241743;28;20072;-63
2022/06/02 01:25:29;;;;;;;5.97;4.28;;;;;;;;;;10243882;28;20045;-63
2022/06/02 01:30:51;;;;;;;5.97;3.90;;;;;;;;;;10241998;28;20081;-63
2022/06/02 01:35:55;;;;;;;7.97;4.50;;;;;;;;;;10225948;28;20117;-63
2022/06/02 01:40:59;;;;;;;6.13;4.30;;;;;;;;;;10240779;28;20037;-63
2022/06/02 01:46:14;;;;;;;7.60;4.82;;;;;;;;;;10241521;28;20081;-64
2022/06/02 01:51:16;;;;;;;6.18;4.43;;;;;;;;;;10241470;28;20079;-63
2022/06/02 01:56:24;;;;;;;4.63;4.22;;;;;;;;;;10241275;28;20077;-64
2022/06/02 02:01:37;;;;;;;7.57;5.10;;;;;;;;;;10238807;28;20072;-64
2022/06/02 02:06:39;;;;;;;5.25;4.43;;;;;;;;;;10236389;28;20160;-64
2022/06/02 02:11:43;;;;;;;7.93;4.68;;;;;;;;;;10238207;28;20471;-63
2022/06/02 02:16:41;;;;;;;;;;;;;;;;;;10241017;28;20041;-64
2022/06/02 02:21:45;;;;;;;6.97;5.30;;;;;;;;;;10240631;28;19976;-64
2022/06/02 02:26:47;;;;;;;9.70;4.93;;;;;;;;;;10240153;28;20117;-64
2022/06/02 02:31:49;;;;;;;6.93;4.72;;;;;;;;;;10240011;28;20088;-63
2022/06/02 02:36:53;;;;;;;8.43;4.97;;;;;;;;;;10239721;28;20049;-63
2022/06/02 02:41:53;;;;;;;11.73;4.82;;;;;;;;;;10239500;28;20045;-63
2022/06/02 02:46:56;;;;;;;9.85;4.75;;;;;;;;;;10239329;28;20426;-64
2022/06/02 02:51:59;;;;;;;6.65;4.82;;;;;;;;;;10238097;28;20088;-63
2022/06/02 02:57:01;;;;;;;6.93;6.00;;;;;;;;;;10239325;28;20486;-64
2022/06/02 03:02:05;;;;;;;11.98;5.75;;;;;;;;;;10242347;28;20082;-63
2022/06/02 03:07:05;;;;;;;5.80;5.00;;;;;;;;;;10243335;28;20072;-64
2022/06/02 03:12:09;;;;;;;10.02;5.18;;;;;;;;;;10238604;28;20092;-63
2022/06/02 03:17:07;;;;;;;;;;;;;;;;;;10236694;28;20053;-64
2022/06/02 03:22:12;;;;;;;9.18;5.13;;;;;;;;;;10236570;28;19921;-63
2022/06/02 03:27:19;;;;;;;7.25;5.60;;;;;;;;;;10237318;28;20057;-63
2022/06/02 03:32:22;;;;;;;7.18;5.43;;;;;;;;;;10237623;28;20077;-63
2022/06/02 03:37:28;;;;;;;6.40;5.38;;;;;;;;;;10236664;28;20093;-63
2022/06/02 03:42:31;;;;;;;10.45;5.10;;;;;;;;;;10236334;28;20084;-63
2022/06/02 03:47:38;;;;;;;5.90;5.33;;;;;;;;;;10236237;28;20057;-64
2022/06/02 03:52:46;;;;;;;9.38;5.55;;;;;;;;;;10235868;28;20095;-63
2022/06/02 03:57:57;;;;;;;6.53;5.18;;;;;;;;;;10235674;28;20525;-63
2022/06/02 04:02:57;;;;;;;8.05;5.85;;;;;;;;;;10234692;28;20046;-63
2022/06/02 04:08:02;;;;;;;5.90;5.28;;;;;;;;;;10235787;28;20510;-63
2022/06/02 04:18:24;;;;;;;11.35;8.38;;;;;;;;;;10223205;28;20082;-63
2022/06/02 04:23:33;;;;;;;6.70;5.95;;;;;;;;;;10235304;28;20046;-63
2022/06/02 04:28:39;;;;;;;6.03;5.40;;;;;;;;;;10235851;28;20068;-63
2022/06/02 04:33:42;;;;;;;6.68;5.72;;;;;;;;;;10235972;28;20050;-64
2022/06/02 04:38:45;;;;;;;6.43;5.63;;;;;;;;;;10235191;28;20116;-63
2022/06/02 04:43:46;;;;;;;17.10;6.83;;;;;;;;;;10234597;28;20088;-63
2022/06/02 04:48:49;;;;;;;7.45;5.43;;;;;;;;;;10236775;28;20037;-63
2022/06/02 04:53:52;;;;;;;9.82;6.05;;;;;;;;;;10262708;28;20072;-63
2022/06/02 04:58:54;;;;;;;15.65;6.35;;;;;;;;;;10263931;28;20525;-64
2022/06/02 05:03:56;;;;;;;7.47;5.47;;;;;;;;;;10273755;28;20041;-63
2022/06/02 05:09:01;;;;;;;12.05;6.00;;;;;;;;;;10272405;28;20041;-63
2022/06/02 05:14:11;;;;;;;14.57;7.07;;;;;;;;;;10273727;28;20524;-63
2022/06/02 05:19:23;;;;;;;8.90;6.45;;;;;;;;;;10274259;28;20072;-63
2022/06/02 05:24:38;;;;;;;16.05;7.18;;;;;;;;;;10273636;28;20092;-64
2022/06/02 05:29:49;;;;;;;15.05;6.70;;;;;;;;;;10274269;28;20056;-64
2022/06/02 05:35:11;;;;;;;15.30;6.28;;;;;;;;;;10273666;28;20072;-64
2022/06/02 05:40:15;;;;;;;9.18;6.80;;;;;;;;;;10261819;28;20533;-64
2022/06/02 05:45:19;;;;;;;11.82;6.78;;;;;;;;;;10279711;28;20107;-64
2022/06/02 05:50:23;;;;;;;9.07;6.22;;;;;;;;;;10280077;28;20088;-64
2022/06/02 05:55:36;;;;;;;7.22;6.53;;;;;;;;;;10280851;28;20049;-65
2022/06/02 06:00:45;;;;;;;9.15;7.20;;;;;;;;;;10278642;28;20434;-64
2022/06/02 06:05:46;;;;;;;7.20;6.43;;;;;;;;;;10281435;28;20071;-64
2022/06/02 06:10:54;;;;;;;12.50;7.35;;;;;;;;;;10280204;28;20076;-64
2022/06/02 06:16:00;;;;;;;12.13;6.10;;;;;;;;;;10280924;28;20088;-64
2022/06/02 06:21:06;;;;;;;11.52;6.82;;;;;;;;;;10280906;28;20052;-64
2022/06/02 06:26:15;;;;;;;8.20;5.72;;;;;;;;;;10280138;28;20046;-64
2022/06/02 06:31:19;;;;;;;12.50;6.70;;;;;;;;;;10279542;28;20099;-64
2022/06/02 06:36:38;;;;;;;9.52;6.03;;;;;;;;;;10280064;28;20064;-64
2022/06/02 06:41:51;;;;;;;17.40;7.32;;;;;;;;;;10278997;28;20037;-64
2022/06/02 06:46:56;;;;;;;9.45;5.90;;;;;;;;;;10266886;28;20056;-64
2022/06/02 06:52:00;;;;;;;8.45;5.68;;;;;;;;;;10279446;28;20463;-64
2022/06/02 06:57:01;;;;;;;9.80;5.57;;;;;;;;;;10279412;28;20045;-64
2022/06/02 07:02:06;;;;;;;8.05;5.53;;;;;;;;;;10278754;28;20049;-64
2022/06/02 07:07:15;;;;;;;8.48;5.85;;;;;;;;;;10279191;28;20041;-64
2022/06/02 07:17:43;;;;;;;9.57;5.22;;;;;;;;;;10277759;28;20056;-63
2022/06/02 07:23:01;;;;;;;;;;;;;;;;;;10277920;28;20045;-64
2022/06/02 07:28:02;;;;;;;10.48;6.22;;;;;;;;;;10272937;28;19925;-64
2022/06/02 07:33:17;;;;;;;9.02;5.72;;;;;;;;;;10245196;28;20073;-64
2022/06/02 07:38:28;;;;;;;7.65;5.60;;;;;;;;;;10236370;28;20049;-64
2022/06/02 07:43:40;;;;;;;12.15;6.38;;;;;;;;;;10236523;28;20040;-64
2022/06/02 07:48:51;;;;;;;9.77;5.60;;;;;;;;;;10236246;28;20045;-65
2022/06/02 07:54:05;;;;;;;10.95;5.93;;;;;;;;;;10236169;28;20093;-65
2022/06/02 07:59:13;;;;;;;10.77;6.57;;;;;;;;;;10234421;28;20061;-65
2022/06/02 08:04:18;;;;;;;6.95;5.07;;;;;;;;;;10234610;28;20426;-65
2022/06/02 08:09:31;;;;;;;7.28;5.32;;;;;;;;;;10235959;28;20045;-65
2022/06/02 08:14:35;;;;;;;7.65;5.50;;;;;;;;;;10234628;28;20107;-65
2022/06/02 08:19:40;;;;;;;6.25;5.65;;;;;;;;;;10235428;28;20042;-65
2022/06/02 08:24:47;;;;;;;10.00;5.35;;;;;;;;;;10235454;28;20050;-65
2022/06/02 08:29:53;;;;;;;5.65;5.10;;;;;;;;;;10235667;28;20065;-65
2022/06/02 08:34:54;;;;;;;11.45;5.40;;;;;;;;;;10235618;28;20507;-65
2022/06/02 08:40:00;;;;;;;5.63;4.63;;;;;;;;;;10235055;28;20073;-65
2022/06/02 08:45:14;;;;;;;8.75;5.60;;;;;;;;;;10235068;28;20045;-65
2022/06/02 08:50:27;;;;;;;15.95;11.57;;;;;;;;;;10234914;28;20079;-65
2022/06/02 08:55:37;;;;;;;7.13;5.20;;;;;;;;;;10234790;28;20088;-65
2022/06/02 09:00:54;;;;;;;7.57;4.88;;;;;;;;;;10235219;28;20038;-65
2022/06/02 09:06:11;;;;;;;8.32;5.07;;;;;;;;;;10235019;28;20076;-65
2022/06/02 09:11:27;;;;;;;6.88;5.93;;;;;;;;;;10234633;28;20088;-65
2022/06/02 09:16:33;;;;;;;6.28;5.20;;;;;;;;;;10256264;28;20407;-65
2022/06/02 09:21:35;;;;;;;10.77;5.28;;;;;;;;;;10242274;28;20049;-65
2022/06/02 09:26:42;;;;;;;5.28;4.78;;;;;;;;;;10242581;28;20168;-65
2022/06/02 09:31:51;;;;;;;7.43;5.13;;;;;;;;;;10241413;28;20089;-65
2022/06/02 09:37:05;;;;;;;11.77;4.72;;;;;;;;;;10241786;28;20045;-65
2022/06/02 09:42:14;;;;;;;8.88;4.38;;;;;;;;;;10219086;28;20088;-65
2022/06/02 09:47:30;;;;;;;9.38;5.30;;;;;;;;;;10240583;28;20101;-65
2022/06/02 09:52:38;;;;;;;5.50;4.55;;;;;;;;;;10240455;28;20084;-65
2022/06/02 09:57:57;;;;;;;6.43;5.13;;;;;;;;;;10251851;28;20049;-65
2022/06/02 10:03:04;;;;;;;4.95;4.55;;;;;;;;;;10236791;28;20060;-64
2022/06/02 10:08:16;;;;;;;4.80;4.22;;;;;;;;;;10239917;28;20061;-64
2022/06/02 10:13:33;;;;;;;9.15;4.05;;;;;;;;;;10239976;28;20092;-66
2022/06/02 10:18:48;;;;;;;9.60;4.93;;;;;;;;;;10255414;28;20049;-66
2022/06/02 10:24:04;;;;;;;6.70;4.53;;;;;;;;;;10239856;28;20053;-66
2022/06/02 10:29:14;;;;;;;7.57;4.63;;;;;;;;;;10238902;28;20423;-66
2022/06/02 10:34:34;;;;;;;8.32;4.95;;;;;;;;;;10238129;28;20506;-65
2022/06/02 10:39:53;;;;;;;7.90;4.50;;;;;;;;;;10239684;28;20049;-65
2022/06/02 10:45:21;;;;;;;7.45;4.88;;;;;;;;;;10238940;28;20509;-64
2022/06/02 10:50:26;;;;;;;4.55;4.15;;;;;;;;;;10186476;28;20089;-66
2022/06/02 10:55:39;;;;;;;4.63;4.13;;;;;;;;;;10238070;28;20072;-64
2022/06/02 11:00:49;;;;;;;6.72;4.47;;;;;;;;;;10236930;28;20053;-64
2022/06/02 11:06:14;;;;;;;7.20;4.32;;;;;;;;;;10238369;28;20045;-64
2022/06/02 11:11:22;;;;;;;6.05;3.65;;;;;;;;;;10237251;28;20579;-65
2022/06/02 11:16:34;;;;;;;5.82;3.80;;;;;;;;;;10237829;28;20491;-66
2022/06/02 11:22:01;;;;;;;7.47;4.38;;;;;;;;;;10244974;28;20069;-66
2022/06/02 11:27:26;;;;;;;5.18;3.67;;;;;;;;;;10236961;28;20407;-66
2022/06/02 11:32:31;;;;;;;9.95;3.63;;;;;;;;;;10236643;28;20085;-66
2022/06/02 11:37:44;;;;;;;4.13;3.72;;;;;;;;;;10235685;28;20041;-66
2022/06/02 11:43:11;;;;;;;11.70;3.97;;;;;;;;;;10236087;28;20092;-66
2022/06/02 11:48:21;;;;;;;4.93;3.72;;;;;;;;;;10236114;28;20045;-66
2022/06/02 11:53:26;;;;;;;7.38;3.75;;;;;;;;;;10236575;28;20084;-66
2022/06/02 11:58:38;;;;;;;7.50;4.00;;;;;;;;;;10235916;28;20050;-66
2022/06/02 12:03:51;;;;;;;4.97;4.57;;;;;;;;;;10235931;28;20044;-65
2022/06/02 12:09:16;;;;;;;6.07;4.03;;;;;;;;;;10233960;28;20254;-65
2022/06/02 12:14:37;;;;;;;12.07;4.32;;;;;;;;;;10236294;28;20080;-65
2022/06/02 12:19:54;;;;;;;5.18;4.47;;;;;;;;;;10225930;28;20092;-65
2022/06/02 12:25:05;;;;;;;11.43;4.63;;;;;;;;;;10235896;28;20426;-66
2022/06/02 12:30:09;;;;;;;7.45;4.20;;;;;;;;;;10235669;28;20061;-66
2022/06/02 12:35:20;;;;;;;7.07;3.97;;;;;;;;;;10234716;28;20081;-66
2022/06/02 12:40:29;;;;;;;8.13;4.57;;;;;;;;;;10235341;28;20041;-66
2022/06/02 12:45:53;;;;;;;4.25;3.70;;;;;;;;;;10235163;28;20052;-66
2022/06/02 12:50:55;;;;;;;5.60;4.57;;;;;;;;;;10242735;28;20088;-65
2022/06/02 12:56:04;;;;;;;9.18;4.55;;;;;;;;;;10275822;28;20320;-67
2022/06/02 13:01:06;;;;;;;9.43;4.57;;;;;;;;;;10284009;28;20052;-66
2022/06/02 13:06:22;;;;;;;6.13;3.80;;;;;;;;;;10283751;28;20505;-63
2022/06/02 13:11:32;;;;;;;5.82;4.35;;;;;;;;;;10282628;28;20048;-64
2022/06/02 13:16:50;;;;;;;3.50;3.20;;;;;;;;;;10283064;28;20510;-63
2022/06/02 13:21:59;;;;;;;7.45;4.28;;;;;;;;;;10283219;28;20049;-64
2022/06/02 13:27:17;;;;;;;7.22;4.50;;;;;;;;;;10282018;28;20428;-63
2022/06/02 13:32:23;;;;;;;13.52;4.32;;;;;;;;;;10282757;28;20084;-63
2022/06/02 13:37:39;;;;;;;5.97;4.60;;;;;;;;;;10282739;28;20055;-63
2022/06/02 13:43:05;;;;;;;5.88;4.18;;;;;;;;;;10281314;28;20045;-63
2022/06/02 13:48:22;;;;;;;9.05;4.53;;;;;;;;;;10281350;28;20049;-63
2022/06/02 13:53:34;;;;;;;7.20;4.00;;;;;;;;;;10281851;28;20080;-63
2022/06/02 13:58:47;;;;;;;4.28;3.80;;;;;;;;;;10280018;28;20045;-64
2022/06/02 14:04:00;;;;;;;12.95;4.05;;;;;;;;;;10279072;28;20490;-63
2022/06/02 14:09:11;;;;;;;9.10;3.45;;;;;;;;;;10278938;28;20052;-64
2022/06/02 14:14:25;;;;;;;7.53;3.58;;;;;;;;;;10280541;28;20454;-63
2022/06/02 14:19:32;;;;;;;5.22;3.42;;;;;;;;;;10280860;28;20049;-63
2022/06/02 14:24:35;;;;;;;6.75;4.30;;;;;;;;;;10280245;28;20078;-64
2022/06/02 14:29:41;;;;;;;6.75;3.65;;;;;;;;;;10280507;28;20068;-63
2022/06/02 14:34:44;;;;;;;4.72;3.90;;;;;;;;;;10279940;28;20160;-64
2022/06/02 14:39:52;;;;;;;7.95;4.20;;;;;;;;;;10278520;28;20075;-63
2022/06/02 14:44:54;;;;;;;5.85;3.47;;;;;;;;;;10279991;28;20052;-63
2022/06/02 14:50:10;;;;;;;7.00;3.38;;;;;;;;;;10279247;28;20083;-64
2022/06/02 14:55:13;;;;;;;5.82;3.60;;;;;;;;;;10278409;28;20080;-63
2022/06/02 15:00:20;;;;;;;9.68;3.65;;;;;;;;;;10279122;28;20073;-64
2022/06/02 15:05:32;;;;;;;6.68;5.45;;;;;;;;;;10278236;28;20049;-64
2022/06/02 15:10:37;;;;;;;7.43;3.97;;;;;;;;;;10276981;28;20530;-64
2022/06/02 15:15:49;;;;;;;6.75;4.15;;;;;;;;;;10267285;28;20510;-63
2022/06/02 15:20:57;;;;;;;12.18;4.63;;;;;;;;;;10237203;28;20045;-63
2022/06/02 15:26:18;;;;;;;6.15;3.40;;;;;;;;;;10236954;28;20037;-63
2022/06/02 15:31:18;;;;;;;16.23;3.60;;;;;;;;;;10236836;28;20060;-63
2022/06/02 15:36:31;;;;;;;5.97;3.67;;;;;;;;;;10237416;28;20072;-64
2022/06/02 15:41:48;;;;;;;8.50;3.78;;;;;;;;;;10227688;28;20073;-64
2022/06/02 15:47:19;;;;;;;7.05;3.45;;;;;;;;;;10235937;28;20060;-62
2022/06/02 15:52:41;;;;;;;5.28;3.15;;;;;;;;;;10237595;28;20076;-62
2022/06/02 15:57:55;;;;;;;8.35;3.80;;;;;;;;;;10236915;28;20088;-62
2022/06/02 16:03:15;;;;;;;4.85;3.42;;;;;;;;;;10236211;28;20068;-62
2022/06/02 16:08:33;;;;;;;4.47;3.75;;;;;;;;;;10235629;28;20454;-62
2022/06/02 16:13:49;;;;;;;5.68;3.25;;;;;;;;;;10235130;28;20057;-61
2022/06/02 16:19:02;;;;;;;6.20;3.75;;;;;;;;;;10235226;28;20045;-64
2022/06/02 16:24:14;;;;;;;7.30;3.67;;;;;;;;;;10212517;28;20068;-61
2022/06/02 16:29:31;;;;;;;10.13;3.28;;;;;;;;;;10240904;28;20080;-62
2022/06/02 16:34:39;;;;;;;5.15;3.80;;;;;;;;;;10239696;28;20084;-61
2022/06/02 16:39:43;;;;;;;6.88;3.13;;;;;;;;;;10234606;28;20056;-62
2022/06/02 16:44:57;;;;;;;9.27;3.78;;;;;;;;;;10235011;28;20423;-62
2022/06/02 16:50:03;;;;;;;6.97;4.00;;;;;;;;;;10232220;28;20079;-62
2022/06/02 16:55:16;;;;;;;7.47;4.45;;;;;;;;;;10239480;28;20141;-62
2022/06/02 17:00:23;;;;;;;7.90;4.45;;;;;;;;;;10224615;28;20072;-62
2022/06/02 17:05:35;;;;;;;8.07;4.28;;;;;;;;;;10252365;28;20080;-62
2022/06/02 17:10:40;;;;;;;8.63;4.18;;;;;;;;;;10272391;28;20077;-63
2022/06/02 17:16:00;;;;;;;8.15;5.88;;;;;;;;;;10273525;28;20560;-62
2022/06/02 17:21:06;;;;;;;8.43;5.15;;;;;;;;;;10270524;28;20060;-62
2022/06/02 17:26:13;;;;;;;13.50;5.85;;;;;;;;;;10274086;28;20045;-63
2022/06/02 17:31:19;;;;;;;9.25;4.95;;;;;;;;;;10258206;28;20502;-63
2022/06/02 17:36:30;;;;;;;10.20;6.07;;;;;;;;;;10274407;28;20084;-63
2022/06/02 17:41:47;;;;;;;13.40;9.13;;;;;;;;;;10280947;28;20053;-62
2022/06/02 17:46:59;;;;;;;13.23;8.20;;;;;;;;;;10280362;28;20118;-63
2022/06/02 17:52:19;;;;;;;14.50;6.82;;;;;;;;;;10278523;28;20525;-62
2022/06/02 17:57:35;;;;;;;8.95;6.28;;;;;;;;;;10288814;28;20529;-62
2022/06/02 18:02:39;;;;;;;14.75;5.78;;;;;;;;;;10276983;28;20080;-63
2022/06/02 18:07:56;;;;;;;15.35;7.70;;;;;;;;;;10276229;28;20060;-62
2022/06/02 18:13:14;;;;;;;20.90;13.55;;;;;;;;;;10279104;28;20414;-62
2022/06/02 18:18:33;;;;;;;8.43;5.97;;;;;;;;;;10276568;28;20084;-62
2022/06/02 18:23:43;;;;;;;8.38;6.10;;;;;;;;;;10261229;28;20045;-62
2022/06/02 18:28:56;;;;;;;9.85;7.13;;;;;;;;;;10276649;28;20099;-62
2022/06/02 18:34:03;;;;;;;15.20;11.83;;;;;;;;;;10248966;28;20068;-62
2022/06/02 18:39:12;;;;;;;12.98;5.38;;;;;;;;;;10236755;28;20077;-62
2022/06/02 18:44:34;;;;;;;6.85;4.75;;;;;;;;;;10266203;28;20065;-62
2022/06/02 18:49:51;;;;;;;10.30;4.60;;;;;;;;;;10275514;28;20037;-62
2022/06/02 18:55:02;;;;;;;9.93;4.80;;;;;;;;;;10276332;28;20092;-62
2022/06/02 19:00:21;;;;;;;6.22;4.80;;;;;;;;;;10272439;28;20041;-62
2022/06/02 19:05:37;;;;;;;8.48;5.18;;;;;;;;;;10278345;28;20048;-62
2022/06/02 19:16:11;;;;;;;7.78;4.68;;;;;;;;;;10278654;28;20076;-62
2022/06/02 19:21:19;;;;;;;6.63;4.35;;;;;;;;;;10277128;28;20503;-62
2022/06/02 19:26:20;;;;;;;7.25;4.57;;;;;;;;;;10275359;28;20396;-62
2022/06/02 19:31:29;;;;;;;12.82;5.63;;;;;;;;;;10258799;28;20089;-62
2022/06/02 19:36:33;;;;;;;9.60;3.40;;;;;;;;;;10276167;28;20473;-61
2022/06/02 19:41:38;;;;;;;4.05;3.63;;;;;;;;;;10276355;28;20438;-62
2022/06/02 19:46:40;;;;;;;7.07;4.03;;;;;;;;;;10277078;28;20069;-61
2022/06/02 19:51:39;;;;;;;6.70;4.25;;;;;;;;;;10274680;28;20429;-61
2022/06/02 19:56:45;;;;;;;9.10;4.30;;;;;;;;;;10273618;28;20558;-64
2022/06/02 20:01:46;;;;;;;5.88;4.18;;;;;;;;;;10274278;28;20057;-63
2022/06/02 20:06:47;;;;;;;4.03;3.63;;;;;;;;;;10277185;28;20055;-61
2022/06/02 20:11:48;;;;;;;9.85;4.30;;;;;;;;;;10273889;28;20095;-61
2022/06/02 20:16:48;;;;;;;15.10;5.38;;;;;;;;;;10271925;28;20061;-61
2022/06/02 20:21:54;;;;;;;14.57;5.35;;;;;;;;;;10250448;28;20038;-63
2022/06/02 20:27:01;;;;;;;8.35;5.07;;;;;;;;;;10234954;28;20045;-63
2022/06/02 20:32:03;;;;;;;7.65;4.10;;;;;;;;;;10234883;28;20073;-63
2022/06/02 20:37:16;;;;;;;8.15;4.82;;;;;;;;;;10234606;28;20080;-63
2022/06/02 20:42:23;;;;;;;11.67;4.30;;;;;;;;;;10233878;28;20072;-63
2022/06/02 20:47:27;;;;;;;12.43;4.95;;;;;;;;;;10234739;28;20426;-62
2022/06/02 20:52:27;;;;;;;8.05;4.25;;;;;;;;;;10234497;28;20056;-63
2022/06/02 20:57:31;;;;;;;8.85;4.47;;;;;;;;;;10233899;28;20084;-61
2022/06/02 21:02:31;;;;;;;6.68;3.88;;;;;;;;;;10240945;28;20375;-63
2022/06/02 21:07:32;;;;;;;7.75;4.28;;;;;;;;;;10271751;28;20513;-63
2022/06/02 21:12:36;;;;;;;9.32;4.00;;;;;;;;;;10282486;28;20613;-64
2022/06/02 21:17:37;;;;;;;6.15;4.55;;;;;;;;;;10282397;28;20084;-62
2022/06/02 21:22:37;;;;;;;6.18;4.30;;;;;;;;;;10281871;28;20045;-62
2022/06/02 21:27:38;;;;;;;7.90;4.05;;;;;;;;;;10281849;28;20057;-63
2022/06/02 21:32:40;;;;;;;9.52;4.30;;;;;;;;;;10282304;28;20052;-63
2022/06/02 21:37:40;;;;;;;7.22;4.20;;;;;;;;;;10281755;28;20084;-62
2022/06/02 21:42:42;;;;;;;6.60;4.28;;;;;;;;;;10281636;28;20501;-62
2022/06/02 21:48:05;;;;;;;4.43;3.40;;;;;;;;;;10281439;28;20499;-62
2022/06/02 21:53:09;;;;;;;8.40;3.75;;;;;;;;;;10281931;28;20453;-62
2022/06/02 21:58:12;;;;;;;9.80;4.38;;;;;;;;;;10281343;28;20044;-62
2022/06/02 22:03:13;;;;;;;5.05;4.13;;;;;;;;;;10280861;28;20044;-63
2022/06/02 22:08:16;;;;;;;8.93;3.80;;;;;;;;;;10281463;28;20064;-62
2022/06/02 22:13:19;;;;;;;8.13;4.22;;;;;;;;;;10280541;28;20048;-62
2022/06/02 22:18:30;;;;;;;4.13;3.57;;;;;;;;;;10281158;28;20088;-62
2022/06/02 22:23:29;;;;;;;5.22;3.45;;;;;;;;;;10280660;28;20072;-62
2022/06/02 22:28:38;;;;;;;7.65;4.28;;;;;;;;;;10259628;28;20099;-62
2022/06/02 22:33:42;;;;;;;7.95;4.97;;;;;;;;;;10239602;28;20084;-62
2022/06/02 22:38:47;;;;;;;5.60;3.78;;;;;;;;;;10238601;28;20522;-62
2022/06/02 22:44:00;;;;;;;5.15;3.83;;;;;;;;;;10248754;28;20076;-62
2022/06/02 22:49:14;;;;;;;7.00;3.70;;;;;;;;;;10216522;28;20068;-62
2022/06/02 22:54:31;;;;;;;5.93;3.50;;;;;;;;;;10237470;28;20045;-63
2022/06/02 22:59:50;;;;;;;5.50;4.07;;;;;;;;;;10237987;28;20092;-62
2022/06/02 23:04:57;;;;;;;5.45;4.32;;;;;;;;;;10231890;28;20060;-62
2022/06/02 23:09:59;;;;;;;9.73;4.35;;;;;;;;;;10238289;28;20048;-62
2022/06/02 23:15:04;;;;;;;6.47;4.43;;;;;;;;;;10238403;28;20088;-62
2022/06/02 23:20:14;;;;;;;5.25;4.25;;;;;;;;;;10237910;28;20076;-62
2022/06/02 23:25:17;;;;;;;12.80;4.05;;;;;;;;;;10237704;28;20053;-63
2022/06/02 23:30:19;;;;;;;9.07;4.82;;;;;;;;;;10237629;28;20081;-62
2022/06/02 23:35:22;;;;;;;4.80;4.38;;;;;;;;;;10237164;28;20053;-62
2022/06/02 23:40:25;;;;;;;6.97;5.07;;;;;;;;;;10237409;28;20077;-62
2022/06/02 23:45:44;;;;;;;8.48;5.25;;;;;;;;;;10237220;28;20408;-62
2022/06/02 23:50:54;;;;;;;5.68;5.10;;;;;;;;;;10233437;28;20257;-62
2022/06/02 23:56:03;;;;;;;6.57;4.43;;;;;;;;;;10237040;28;20049;-63
